Time;durP1;ratioP1;P1;durP2;ratioP2;P2;SDS_P1;SDS_P2;PMS_P1;PMS_P2;Temp;Humidity;BMP_temperature;BMP_pressure;BME280_temperature;BME280_humidity;BME280_pressure;Samples;Min_cycle;Max_cycle;Signal;HPM_P1;HPM_P2
2024/04/03 00:01:58;;;;;;;;;;;5.80;99.90;;;;;;4927827;29;19931;-65
2024/04/03 00:04:25;;;;;;;;;;;5.70;99.90;;;;;;4905434;29;19985;-65
2024/04/03 00:06:50;;;;;;;;;;;5.70;99.90;;;;;;4916805;29;19931;-65
2024/04/03 00:09:16;;;;;;;;;;;5.70;99.90;;;;;;4921365;29;19931;-65
2024/04/03 00:11:42;;;;;;;;;;;5.60;99.90;;;;;;4914598;29;19934;-65
2024/04/03 00:14:08;;;;;;;;;;;5.60;99.90;;;;;;4904430;29;19931;-65
2024/04/03 00:16:34;;;;;;;;;;;5.60;99.90;;;;;;4907469;29;19951;-65
2024/04/03 00:19:00;;;;;;;;;;;5.70;99.90;;;;;;4925756;29;19927;-65
2024/04/03 00:21:26;;;;;;;;;;;5.60;99.90;;;;;;4919190;29;19934;-65
2024/04/03 00:23:54;;;;;;;;;;;5.60;99.90;;;;;;4910841;29;19931;-65
2024/04/03 00:26:19;;;;;;;;;;;5.60;99.90;;;;;;4919308;29;19927;-65
2024/04/03 00:28:45;;;;;;;;;;;5.60;99.90;;;;;;4919429;29;19935;-65
2024/04/03 00:31:11;;;;;;;;;;;5.60;99.90;;;;;;4917934;29;19938;-65
2024/04/03 00:33:37;;;;;;;;;;;5.60;99.90;;;;;;4914006;29;19927;-65
2024/04/03 00:36:03;;;;;;;;;;;5.50;99.90;;;;;;4905271;29;19949;-65
2024/04/03 00:38:29;;;;;;;;;;;5.50;99.90;;;;;;4921500;29;20407;-65
2024/04/03 00:40:56;;;;;;;;;;;5.60;99.90;;;;;;4917637;29;19935;-65
2024/04/03 00:43:22;;;;;;;;;;;5.60;99.90;;;;;;4917262;29;20359;-65
2024/04/03 00:45:48;;;;;;;;;;;5.60;99.90;;;;;;4907060;29;19927;-65
2024/04/03 00:48:14;;;;;;;;;;;5.50;99.90;;;;;;4916717;29;19931;-65
2024/04/03 00:50:40;;;;;;;;;;;5.50;99.90;;;;;;4917002;29;20022;-65
2024/04/03 00:53:07;;;;;;;;;;;5.40;99.90;;;;;;4916220;29;20421;-65
2024/04/03 00:55:33;;;;;;;;;;;5.40;99.90;;;;;;4892004;29;19935;-65
2024/04/03 00:58:00;;;;;;;;;;;5.40;99.90;;;;;;4916290;29;20459;-65
2024/04/03 01:00:26;;;;;;;;;;;5.40;99.90;;;;;;4915258;29;19986;-65
2024/04/03 01:02:52;;;;;;;;;;;5.40;99.90;;;;;;4912581;29;20356;-65
2024/04/03 01:05:18;;;;;;;;;;;5.50;99.90;;;;;;4919984;29;19959;-65
2024/04/03 01:07:44;;;;;;;;;;;5.40;99.90;;;;;;4902411;29;20546;-65
2024/04/03 01:10:10;;;;;;;;;;;5.40;99.90;;;;;;4905618;29;19978;-65
2024/04/03 01:12:36;;;;;;;;;;;5.30;99.90;;;;;;4906760;29;19986;-65
2024/04/03 01:15:02;;;;;;;;;;;5.30;99.90;;;;;;4923310;29;19934;-65
2024/04/03 01:17:27;;;;;;;;;;;5.20;99.90;;;;;;4900130;29;19931;-65
2024/04/03 01:19:54;;;;;;;;;;;5.20;99.90;;;;;;4928029;29;19959;-65
2024/04/03 01:22:20;;;;;;;;;;;5.10;99.90;;;;;;4939169;28;20429;-65
2024/04/03 01:24:46;;;;;;;;;;;5.10;99.90;;;;;;4921043;29;20399;-65
2024/04/03 01:27:12;;;;;;;;;;;5.10;99.90;;;;;;4920336;29;19927;-65
2024/04/03 01:29:38;;;;;;;;;;;5.00;99.90;;;;;;4919570;29;20323;-65
2024/04/03 01:32:05;;;;;;;;;;;5.00;99.90;;;;;;4926495;29;19931;-65
2024/04/03 01:34:31;;;;;;;;;;;5.00;99.90;;;;;;4928155;29;20426;-65
2024/04/03 01:36:56;;;;;;;;;;;5.00;99.90;;;;;;4921239;29;19927;-65
2024/04/03 01:39:22;;;;;;;;;;;5.00;99.90;;;;;;4926792;29;19927;-65
2024/04/03 01:41:48;;;;;;;;;;;5.00;99.90;;;;;;4914495;29;20318;-65
2024/04/03 01:44:14;;;;;;;;;;;5.00;99.90;;;;;;4928505;29;19927;-65
2024/04/03 01:46:40;;;;;;;;;;;5.00;99.90;;;;;;4942111;29;19927;-65
2024/04/03 01:49:06;;;;;;;;;;;4.90;99.90;;;;;;4920084;29;19934;-65
2024/04/03 01:51:32;;;;;;;;;;;5.00;99.90;;;;;;4921923;29;19983;-65
2024/04/03 01:53:58;;;;;;;;;;;5.00;99.90;;;;;;4907646;29;20641;-65
2024/04/03 01:56:24;;;;;;;;;;;5.00;99.90;;;;;;4902058;29;19938;-65
2024/04/03 01:58:50;;;;;;;;;;;5.00;99.90;;;;;;4918714;29;20673;-66
2024/04/03 02:01:16;;;;;;;;;;;5.00;99.90;;;;;;4911314;29;19987;-65
2024/04/03 02:03:42;;;;;;;;;;;5.00;99.90;;;;;;4919984;29;19930;-65
2024/04/03 02:06:08;;;;;;;;;;;5.00;99.90;;;;;;4930068;29;20026;-65
2024/04/03 02:08:33;;;;;;;;;;;4.90;99.90;;;;;;4928023;29;19985;-65
2024/04/03 02:10:59;;;;;;;;;;;4.90;99.90;;;;;;4918877;29;20033;-65
2024/04/03 02:13:25;;;;;;;;;;;4.90;99.90;;;;;;4926818;29;19931;-65
2024/04/03 02:15:55;;;;;;;;;;;4.90;99.90;;;;;;4907584;29;19935;-65
2024/04/03 02:18:21;;;;;;;;;;;4.90;99.90;;;;;;4925292;29;20431;-65
2024/04/03 02:20:47;;;;;;;;;;;4.80;99.90;;;;;;4918426;29;19927;-65
2024/04/03 02:23:13;;;;;;;;;;;4.80;99.90;;;;;;4926402;29;20408;-65
2024/04/03 02:25:39;;;;;;;;;;;4.70;99.90;;;;;;4921708;29;19938;-65
2024/04/03 02:28:05;;;;;;;;;;;4.60;99.90;;;;;;4927910;29;19927;-65
2024/04/03 02:30:31;;;;;;;;;;;4.60;99.90;;;;;;4919952;29;19931;-65
2024/04/03 02:32:57;;;;;;;;;;;4.70;99.90;;;;;;4918303;29;19938;-65
2024/04/03 02:35:26;;;;;;;;;;;4.70;99.90;;;;;;4917580;29;19934;-65
2024/04/03 02:37:51;;;;;;;;;;;4.70;99.90;;;;;;4918710;29;20425;-65
2024/04/03 02:40:17;;;;;;;;;;;4.70;99.90;;;;;;4908401;29;19931;-65
2024/04/03 02:42:43;;;;;;;;;;;4.70;99.90;;;;;;4920136;29;19927;-65
2024/04/03 02:45:09;;;;;;;;;;;4.70;99.90;;;;;;4924399;29;19927;-65
2024/04/03 02:47:35;;;;;;;;;;;4.70;99.90;;;;;;4930242;29;19927;-66
2024/04/03 02:50:01;;;;;;;;;;;4.70;99.90;;;;;;4906865;29;19927;-65
2024/04/03 02:52:27;;;;;;;;;;;4.70;99.90;;;;;;4915581;29;19941;-65
2024/04/03 02:54:53;;;;;;;;;;;4.70;99.90;;;;;;4932519;29;19970;-65
2024/04/03 02:57:19;;;;;;;;;;;4.70;99.90;;;;;;4931645;29;19955;-65
2024/04/03 02:59:45;;;;;;;;;;;4.60;99.90;;;;;;4919286;29;20437;-65
2024/04/03 03:02:11;;;;;;;;;;;4.60;99.90;;;;;;4903421;29;20010;-65
2024/04/03 03:04:41;;;;;;;;;;;4.60;99.90;;;;;;4919567;29;20403;-65
2024/04/03 03:07:07;;;;;;;;;;;4.60;99.90;;;;;;4933217;29;19931;-65
2024/04/03 03:09:34;;;;;;;;;;;4.60;99.90;;;;;;4931432;29;19931;-65
2024/04/03 03:12:00;;;;;;;;;;;4.60;99.90;;;;;;4916658;29;19927;-66
2024/04/03 03:14:25;;;;;;;;;;;4.60;99.90;;;;;;4918972;29;19927;-65
2024/04/03 03:16:52;;;;;;;;;;;4.50;99.90;;;;;;4916985;29;20438;-65
2024/04/03 03:19:17;;;;;;;;;;;4.50;99.90;;;;;;4922845;29;19926;-65
2024/04/03 03:21:43;;;;;;;;;;;4.50;99.90;;;;;;4903882;29;19927;-65
2024/04/03 03:24:09;;;;;;;;;;;4.40;99.90;;;;;;4912071;29;19931;-65
2024/04/03 03:26:35;;;;;;;;;;;4.40;99.90;;;;;;4906646;29;19953;-65
2024/04/03 03:29:01;;;;;;;;;;;4.40;99.90;;;;;;4925742;29;19950;-66
2024/04/03 03:31:28;;;;;;;;;;;4.50;99.90;;;;;;4918089;29;19930;-65
2024/04/03 03:33:54;;;;;;;;;;;4.40;99.90;;;;;;4916882;29;19982;-65
2024/04/03 03:36:20;;;;;;;;;;;4.40;99.90;;;;;;4924344;29;20462;-65
2024/04/03 03:38:46;;;;;;;;;;;4.40;99.90;;;;;;4904209;29;19931;-65
2024/04/03 03:41:12;;;;;;;;;;;4.40;99.90;;;;;;4928041;29;19938;-65
2024/04/03 03:43:38;;;;;;;;;;;4.30;99.90;;;;;;4903699;29;19965;-65
2024/04/03 03:46:04;;;;;;;;;;;4.30;99.90;;;;;;4941097;28;19930;-65
2024/04/03 03:54:02;;;;;;;;;;;4.30;99.90;;;;;;4926871;29;19931;-65
2024/04/03 03:56:28;;;;;;;;;;;4.30;99.90;;;;;;4917969;29;19934;-65
2024/04/03 03:58:54;;;;;;;;;;;4.30;99.90;;;;;;4916629;29;20323;-65
2024/04/03 04:01:20;;;;;;;;;;;4.20;99.90;;;;;;4925990;29;20093;-65
2024/04/03 04:03:46;;;;;;;;;;;4.20;99.90;;;;;;4920515;29;19931;-66
2024/04/03 04:06:12;;;;;;;;;;;4.20;99.90;;;;;;4923025;29;19959;-65
2024/04/03 04:08:38;;;;;;;;;;;4.10;99.90;;;;;;4928081;29;19942;-65
2024/04/03 04:11:04;;;;;;;;;;;4.20;99.90;;;;;;4915568;29;20467;-65
2024/04/03 04:13:29;;;;;;;;;;;4.20;99.90;;;;;;4906070;29;20352;-65
2024/04/03 04:15:59;;;;;;;;;;;4.10;99.90;;;;;;4910344;29;19950;-65
2024/04/03 04:18:25;;;;;;;;;;;4.10;99.90;;;;;;4917120;29;19927;-65
2024/04/03 04:20:55;;;;;;;;;;;4.10;99.90;;;;;;4902609;29;19938;-65
2024/04/03 04:23:24;;;;;;;;;;;4.10;99.90;;;;;;4925658;29;19926;-65
2024/04/03 04:26:01;;;;;;;;;;;4.10;99.90;;;;;;4918509;29;19938;-65
2024/04/03 04:28:28;;;;;;;;;;;4.00;99.90;;;;;;4903477;29;19931;-64
2024/04/03 04:30:57;;;;;;;;;;;4.00;99.90;;;;;;4915220;29;19938;-65
2024/04/03 04:33:23;;;;;;;;;;;3.90;99.90;;;;;;4909056;29;19950;-65
2024/04/03 04:35:53;;;;;;;;;;;4.00;99.90;;;;;;4927213;29;20411;-65
2024/04/03 04:38:19;;;;;;;;;;;4.00;99.90;;;;;;4900743;29;19942;-66
2024/04/03 04:40:58;;;;;;;;;;;4.00;99.90;;;;;;4930325;29;19927;-65
2024/04/03 04:43:26;;;;;;;;;;;4.00;99.90;;;;;;4916192;29;19931;-65
2024/04/03 04:45:58;;;;;;;;;;;4.00;99.90;;;;;;4918408;29;19938;-65
2024/04/03 04:48:25;;;;;;;;;;;3.90;99.90;;;;;;4927727;29;19927;-66
2024/04/03 04:50:52;;;;;;;;;;;3.90;99.90;;;;;;4928436;29;19934;-65
2024/04/03 04:53:18;;;;;;;;;;;3.90;99.90;;;;;;4916841;29;19927;-65
2024/04/03 04:56:04;;;;;;;;;;;3.90;99.90;;;;;;4920904;29;19931;-65
2024/04/03 04:58:30;;;;;;;;;;;4.00;99.90;;;;;;4914267;29;19934;-65
2024/04/03 05:01:03;;;;;;;;;;;4.00;99.90;;;;;;4917349;29;19986;-65
2024/04/03 05:03:29;;;;;;;;;;;4.00;99.90;;;;;;4916703;29;20310;-65
2024/04/03 05:05:55;;;;;;;;;;;4.00;99.90;;;;;;4915937;29;19931;-65
2024/04/03 05:08:21;;;;;;;;;;;4.00;99.90;;;;;;4916825;29;19930;-65
2024/04/03 05:10:51;;;;;;;;;;;4.00;99.90;;;;;;4928292;29;19959;-65
2024/04/03 05:13:18;;;;;;;;;;;4.00;99.90;;;;;;4923441;29;19979;-65
2024/04/03 05:15:46;;;;;;;;;;;3.90;99.90;;;;;;4914599;29;19931;-66
2024/04/03 05:18:12;;;;;;;;;;;4.00;99.90;;;;;;4924692;29;20017;-65
2024/04/03 05:20:39;;;;;;;;;;;4.00;99.90;;;;;;4912385;29;20487;-65
2024/04/03 05:23:05;;;;;;;;;;;4.00;99.90;;;;;;4895558;29;19934;-66
2024/04/03 05:25:31;;;;;;;;;;;4.10;99.90;;;;;;4910011;29;19989;-66
2024/04/03 05:27:57;;;;;;;;;;;4.10;99.90;;;;;;4914316;29;19957;-66
2024/04/03 05:30:24;;;;;;;;;;;4.20;99.90;;;;;;4926402;29;20005;-65
2024/04/03 05:32:50;;;;;;;;;;;4.20;99.90;;;;;;4898796;29;20029;-66
2024/04/03 05:35:16;;;;;;;;;;;4.20;99.90;;;;;;4914932;29;19934;-65
2024/04/03 05:37:45;;;;;;;;;;;4.20;99.90;;;;;;4894252;29;19961;-65
2024/04/03 05:40:12;;;;;;;;;;;4.20;99.90;;;;;;4912345;29;19927;-65
2024/04/03 05:42:38;;;;;;;;;;;4.20;99.90;;;;;;4920991;29;19978;-65
2024/04/03 05:45:04;;;;;;;;;;;4.20;99.90;;;;;;4910039;29;19935;-65
2024/04/03 05:47:30;;;;;;;;;;;4.20;99.90;;;;;;4896234;29;19939;-65
2024/04/03 05:49:58;;;;;;;;;;;4.20;99.90;;;;;;4911929;29;20458;-65
2024/04/03 05:52:24;;;;;;;;;;;4.20;99.90;;;;;;4912606;29;19931;-65
2024/04/03 05:54:50;;;;;;;;;;;4.30;99.90;;;;;;4908139;29;19934;-65
2024/04/03 05:57:17;;;;;;;;;;;4.40;99.90;;;;;;4900338;29;19950;-66
2024/04/03 05:59:43;;;;;;;;;;;4.40;99.90;;;;;;4911400;29;19953;-65
2024/04/03 06:02:09;;;;;;;;;;;4.40;99.90;;;;;;4913953;29;20486;-65
2024/04/03 06:04:35;;;;;;;;;;;4.50;99.90;;;;;;4913421;29;19930;-65
2024/04/03 06:07:03;;;;;;;;;;;4.50;99.90;;;;;;4903876;29;19943;-65
2024/04/03 06:09:30;;;;;;;;;;;4.50;99.90;;;;;;4914190;29;19982;-65
2024/04/03 06:11:56;;;;;;;;;;;4.50;99.90;;;;;;4896802;29;19934;-65
2024/04/03 06:14:21;;;;;;;;;;;4.60;99.90;;;;;;4901633;29;19935;-65
2024/04/03 06:16:47;;;;;;;;;;;4.60;99.90;;;;;;4899597;29;20530;-65
2024/04/03 06:19:15;;;;;;;;;;;4.60;99.90;;;;;;4903647;29;19939;-65
2024/04/03 06:21:43;;;;;;;;;;;4.70;99.90;;;;;;4930940;29;19931;-65
2024/04/03 06:24:09;;;;;;;;;;;4.80;99.90;;;;;;4916539;29;19939;-65
2024/04/03 06:26:36;;;;;;;;;;;4.80;99.90;;;;;;4921348;29;19936;-65
2024/04/03 06:29:02;;;;;;;;;;;4.90;99.90;;;;;;4917777;29;20039;-65
2024/04/03 06:31:28;;;;;;;;;;;4.80;99.90;;;;;;4916150;29;19978;-65
2024/04/03 06:33:56;;;;;;;;;;;4.90;99.90;;;;;;4917953;29;19969;-65
2024/04/03 06:36:22;;;;;;;;;;;5.00;99.90;;;;;;4931694;29;19969;-65
2024/04/03 06:38:48;;;;;;;;;;;5.00;99.90;;;;;;4913967;29;19927;-66
2024/04/03 06:41:14;;;;;;;;;;;5.00;99.90;;;;;;4918561;29;20002;-65
2024/04/03 06:43:40;;;;;;;;;;;5.00;99.90;;;;;;4918719;29;19998;-65
2024/04/03 06:46:06;;;;;;;;;;;5.00;99.90;;;;;;4915211;29;19973;-65
2024/04/03 06:48:32;;;;;;;;;;;5.00;99.90;;;;;;4932155;29;20427;-65
2024/04/03 06:50:58;;;;;;;;;;;5.00;99.90;;;;;;4915672;29;19931;-65
2024/04/03 06:53:24;;;;;;;;;;;5.10;99.90;;;;;;4917183;29;20507;-65
2024/04/03 06:55:53;;;;;;;;;;;5.20;99.90;;;;;;4917300;29;19981;-65
2024/04/03 06:58:19;;;;;;;;;;;5.30;99.90;;;;;;4914953;29;20495;-65
2024/04/03 07:00:45;;;;;;;;;;;5.30;99.90;;;;;;4916064;29;19934;-65
2024/04/03 07:03:11;;;;;;;;;;;5.40;99.90;;;;;;4915905;29;20531;-65
2024/04/03 07:05:39;;;;;;;;;;;5.50;99.90;;;;;;4913198;29;19926;-65
2024/04/03 07:08:05;;;;;;;;;;;5.60;99.90;;;;;;4897102;29;19938;-65
2024/04/03 07:10:32;;;;;;;;;;;5.70;99.90;;;;;;4928990;29;19935;-65
2024/04/03 07:13:00;;;;;;;;;;;5.80;99.90;;;;;;4915017;29;19927;-65
2024/04/03 07:15:26;;;;;;;;;;;5.80;99.90;;;;;;4901346;29;19930;-65
2024/04/03 07:17:52;;;;;;;;;;;5.90;99.90;;;;;;4914538;29;20281;-65
2024/04/03 07:20:18;;;;;;;;;;;6.00;99.90;;;;;;4917513;29;19934;-65
2024/04/03 07:22:45;;;;;;;;;;;6.10;99.90;;;;;;4916485;29;20352;-65
2024/04/03 07:25:11;;;;;;;;;;;6.10;99.90;;;;;;4916680;29;20419;-65
2024/04/03 07:27:43;;;;;;;;;;;6.20;99.90;;;;;;4917340;29;20427;-65
2024/04/03 07:30:10;;;;;;;;;;;6.20;99.90;;;;;;4917781;29;19978;-65
2024/04/03 07:32:36;;;;;;;;;;;6.30;99.90;;;;;;4929183;29;20586;-65
2024/04/03 07:35:02;;;;;;;;;;;6.30;99.90;;;;;;4908277;29;19927;-65
2024/04/03 07:37:28;;;;;;;;;;;6.40;99.90;;;;;;4924029;29;20399;-65
2024/04/03 07:39:53;;;;;;;;;;;6.40;99.90;;;;;;4918669;29;19942;-65
2024/04/03 07:42:20;;;;;;;;;;;6.50;99.90;;;;;;4905101;29;19931;-65
2024/04/03 07:44:47;;;;;;;;;;;6.50;99.90;;;;;;4913410;29;20430;-65
2024/04/03 07:47:13;;;;;;;;;;;6.60;99.90;;;;;;4923068;29;20490;-65
2024/04/03 07:49:39;;;;;;;;;;;6.70;99.90;;;;;;4923369;29;19964;-65
2024/04/03 07:52:05;;;;;;;;;;;6.80;99.90;;;;;;4915747;29;19935;-65
2024/04/03 07:54:31;;;;;;;;;;;6.90;99.90;;;;;;4913537;29;20416;-65
2024/04/03 07:56:57;;;;;;;;;;;7.00;99.90;;;;;;4914766;29;19931;-65
2024/04/03 07:59:22;;;;;;;;;;;7.10;99.90;;;;;;4918104;29;19938;-65
2024/04/03 08:01:48;;;;;;;;;;;7.20;99.90;;;;;;4905497;29;19931;-65
2024/04/03 08:04:15;;;;;;;;;;;7.30;99.90;;;;;;4915059;29;19934;-65
2024/04/03 08:06:41;;;;;;;;;;;7.40;99.90;;;;;;4918984;29;19943;-65
2024/04/03 08:09:07;;;;;;;;;;;7.60;99.90;;;;;;4909651;29;19931;-65
2024/04/03 08:11:35;;;;;;;;;;;7.70;99.90;;;;;;4916347;29;19935;-65
2024/04/03 08:14:01;;;;;;;;;;;7.70;99.90;;;;;;4923967;29;19927;-65
2024/04/03 08:16:27;;;;;;;;;;;7.90;99.90;;;;;;4915623;29;20349;-65
2024/04/03 08:18:53;;;;;;;;;;;7.90;99.90;;;;;;4915302;29;20012;-65
2024/04/03 08:21:19;;;;;;;;;;;8.00;99.90;;;;;;4916718;29;19927;-66
2024/04/03 08:23:45;;;;;;;;;;;8.10;99.90;;;;;;4915100;29;20344;-65
2024/04/03 08:26:10;;;;;;;;;;;8.20;99.90;;;;;;4916621;29;19970;-65
2024/04/03 08:28:38;;;;;;;;;;;8.30;99.90;;;;;;4912215;29;19931;-65
2024/04/03 08:31:14;;;;;;;;;;;8.40;99.90;;;;;;4908517;29;19935;-66
2024/04/03 08:33:41;;;;;;;;;;;8.40;99.90;;;;;;4926597;29;19939;-65
2024/04/03 08:36:07;;;;;;;;;;;8.60;99.90;;;;;;4925100;29;20454;-65
2024/04/03 08:38:33;;;;;;;;;;;8.60;99.90;;;;;;4914573;29;19928;-65
2024/04/03 08:41:00;;;;;;;;;;;8.70;99.90;;;;;;4926282;29;20471;-65
2024/04/03 08:43:26;;;;;;;;;;;8.80;99.90;;;;;;4914776;29;19927;-65
2024/04/03 08:45:53;;;;;;;;;;;8.90;99.90;;;;;;4914303;29;19937;-65
2024/04/03 08:48:22;;;;;;;;;;;8.90;99.90;;;;;;4916251;29;20446;-65
2024/04/03 08:50:49;;;;;;;;;;;8.90;99.90;;;;;;4942536;29;19931;-65
2024/04/03 08:53:16;;;;;;;;;;;9.00;99.90;;;;;;4914098;29;19931;-65
2024/04/03 08:55:44;;;;;;;;;;;9.00;99.90;;;;;;4927594;29;19933;-65
2024/04/03 08:58:10;;;;;;;;;;;9.10;99.90;;;;;;4920930;29;19937;-65
2024/04/03 09:00:36;;;;;;;;;;;9.20;99.90;;;;;;4908918;29;19931;-65
2024/04/03 09:03:02;;;;;;;;;;;9.30;99.90;;;;;;4915131;29;19926;-65
2024/04/03 09:05:27;;;;;;;;;;;9.40;99.90;;;;;;4916304;29;19986;-65
2024/04/03 09:07:58;;;;;;;;;;;9.50;99.90;;;;;;4907842;29;19931;-65
2024/04/03 09:10:31;;;;;;;;;;;9.50;99.90;;;;;;4915444;29;19962;-65
2024/04/03 09:13:06;;;;;;;;;;;9.60;99.90;;;;;;4926055;29;20546;-65
2024/04/03 09:15:32;;;;;;;;;;;9.70;99.90;;;;;;4917668;29;20316;-65
2024/04/03 09:18:04;;;;;;;;;;;9.70;99.90;;;;;;4908096;29;19927;-65
2024/04/03 09:20:30;;;;;;;;;;;9.70;99.90;;;;;;4900900;29;19955;-65
2024/04/03 09:22:57;;;;;;;;;;;9.80;99.90;;;;;;4897692;29;20303;-65
2024/04/03 09:25:26;;;;;;;;;;;9.70;99.90;;;;;;4914995;29;19931;-65
2024/04/03 09:27:59;;;;;;;;;;;9.80;99.90;;;;;;4927846;29;20425;-65
2024/04/03 09:30:25;;;;;;;;;;;9.80;99.90;;;;;;4912651;29;20035;-65
2024/04/03 09:32:55;;;;;;;;;;;9.90;99.90;;;;;;4912026;29;19981;-65
2024/04/03 09:35:23;;;;;;;;;;;9.90;99.90;;;;;;4912953;29;20425;-65
2024/04/03 09:37:49;;;;;;;;;;;10.00;99.90;;;;;;4926739;29;20040;-66
2024/04/03 09:40:15;;;;;;;;;;;10.00;99.90;;;;;;4911250;29;19931;-65
2024/04/03 09:42:43;;;;;;;;;;;10.20;99.90;;;;;;4927420;29;19927;-65
2024/04/03 09:45:09;;;;;;;;;;;10.10;99.90;;;;;;4920250;29;19926;-65
2024/04/03 09:47:36;;;;;;;;;;;10.20;99.90;;;;;;4918243;29;20284;-65
2024/04/03 09:50:02;;;;;;;;;;;10.30;99.90;;;;;;4918700;29;19930;-65
2024/04/03 09:52:29;;;;;;;;;;;10.30;99.90;;;;;;4920042;29;19931;-65
2024/04/03 09:54:56;;;;;;;;;;;10.40;99.90;;;;;;4901337;29;20499;-65
2024/04/03 09:57:23;;;;;;;;;;;10.40;99.90;;;;;;4918644;29;19927;-65
2024/04/03 09:59:49;;;;;;;;;;;10.40;99.90;;;;;;4932764;29;19927;-65
2024/04/03 10:02:16;;;;;;;;;;;10.40;99.90;;;;;;4932208;29;20025;-65
2024/04/03 10:04:42;;;;;;;;;;;10.40;99.90;;;;;;4909986;29;19951;-65
2024/04/03 10:07:15;;;;;;;;;;;10.50;99.90;;;;;;4931589;29;19938;-65
2024/04/03 10:09:41;;;;;;;;;;;10.40;99.90;;;;;;4942027;28;19931;-65
2024/04/03 10:12:15;;;;;;;;;;;10.50;99.90;;;;;;4922423;29;19927;-65
2024/04/03 10:14:41;;;;;;;;;;;10.60;99.90;;;;;;4914825;29;19949;-65
2024/04/03 10:17:14;;;;;;;;;;;10.60;99.90;;;;;;4933983;29;20391;-65
2024/04/03 10:19:42;;;;;;;;;;;10.70;99.90;;;;;;4915316;29;20434;-65
2024/04/03 10:22:10;;;;;;;;;;;10.70;99.90;;;;;;4910465;29;19931;-65
2024/04/03 10:24:36;;;;;;;;;;;10.80;99.90;;;;;;4915659;29;19938;-65
2024/04/03 10:27:03;;;;;;;;;;;10.90;99.90;;;;;;4917360;29;19938;-66
2024/04/03 10:29:29;;;;;;;;;;;11.00;99.90;;;;;;4916419;29;19928;-66
2024/04/03 10:31:57;;;;;;;;;;;11.00;99.90;;;;;;4912797;29;19927;-65
2024/04/03 10:34:23;;;;;;;;;;;11.10;99.90;;;;;;4896909;29;19931;-65
2024/04/03 10:36:49;;;;;;;;;;;11.20;99.90;;;;;;4912276;29;19977;-65
2024/04/03 10:39:15;;;;;;;;;;;11.30;99.90;;;;;;4919802;29;19937;-65
2024/04/03 10:41:44;;;;;;;;;;;11.50;99.90;;;;;;4931276;29;19997;-66
2024/04/03 10:44:13;;;;;;;;;;;11.60;99.90;;;;;;4927451;29;19931;-65
2024/04/03 10:46:39;;;;;;;;;;;11.70;99.90;;;;;;4892109;29;19930;-66
2024/04/03 10:49:05;;;;;;;;;;;11.80;99.90;;;;;;4906654;29;19931;-66
2024/04/03 10:51:31;;;;;;;;;;;11.90;99.90;;;;;;4902462;29;19930;-65
2024/04/03 10:53:57;;;;;;;;;;;12.00;99.90;;;;;;4927737;29;19931;-66
2024/04/03 10:56:26;;;;;;;;;;;12.10;99.90;;;;;;4913475;29;19938;-66
2024/04/03 10:58:53;;;;;;;;;;;12.20;99.90;;;;;;4929512;29;20467;-66
2024/04/03 11:01:19;;;;;;;;;;;12.30;99.90;;;;;;4900272;29;19951;-66
2024/04/03 11:03:45;;;;;;;;;;;12.40;99.90;;;;;;4917245;29;19927;-66
2024/04/03 11:06:12;;;;;;;;;;;12.50;99.90;;;;;;4912224;29;19931;-66
2024/04/03 11:08:39;;;;;;;;;;;12.60;99.90;;;;;;4907898;29;20292;-66
2024/04/03 11:11:05;;;;;;;;;;;12.50;99.90;;;;;;4910576;29;20352;-66
2024/04/03 11:13:32;;;;;;;;;;;12.50;99.90;;;;;;4911276;29;19963;-66
2024/04/03 11:15:58;;;;;;;;;;;12.50;99.90;;;;;;4903533;29;19981;-66
2024/04/03 11:18:25;;;;;;;;;;;12.40;99.90;;;;;;4901418;29;19935;-66
2024/04/03 11:20:50;;;;;;;;;;;12.50;99.90;;;;;;4923552;29;19942;-65
2024/04/03 11:23:17;;;;;;;;;;;12.50;99.90;;;;;;4926170;29;19978;-66
2024/04/03 11:25:43;;;;;;;;;;;12.50;99.90;;;;;;4916324;29;19931;-66
2024/04/03 11:28:08;;;;;;;;;;;12.50;99.90;;;;;;4916800;29;19981;-65
2024/04/03 11:30:38;;;;;;;;;;;12.50;99.90;;;;;;4916819;29;19930;-65
2024/04/03 11:33:04;;;;;;;;;;;12.50;99.90;;;;;;4909336;29;20117;-66
2024/04/03 11:35:29;;;;;;;;;;;12.70;99.90;;;;;;4915155;29;19931;-66
2024/04/03 11:37:56;;;;;;;;;;;12.70;99.90;;;;;;4904196;29;19934;-65
2024/04/03 11:40:21;;;;;;;;;;;12.80;99.90;;;;;;4916145;29;20367;-65
2024/04/03 11:42:47;;;;;;;;;;;12.70;99.90;;;;;;4918494;29;19934;-66
2024/04/03 11:45:13;;;;;;;;;;;12.60;99.90;;;;;;4926946;29;19930;-66
2024/04/03 11:47:39;;;;;;;;;;;12.60;99.90;;;;;;4905878;29;19962;-65
2024/04/03 11:50:05;;;;;;;;;;;12.50;99.90;;;;;;4909378;29;19963;-65
2024/04/03 11:52:32;;;;;;;;;;;12.60;99.90;;;;;;4896400;29;19930;-65
2024/04/03 11:54:58;;;;;;;;;;;12.50;99.90;;;;;;4928553;29;20395;-65
2024/04/03 11:57:23;;;;;;;;;;;12.50;99.90;;;;;;4920354;29;19969;-65
2024/04/03 11:59:50;;;;;;;;;;;12.40;99.90;;;;;;4926633;29;19938;-65
2024/04/03 12:02:16;;;;;;;;;;;12.50;99.90;;;;;;4915450;29;19982;-67
2024/04/03 12:04:42;;;;;;;;;;;12.50;99.90;;;;;;4913548;29;19978;-64
2024/04/03 12:07:10;;;;;;;;;;;12.50;99.90;;;;;;4921637;29;20400;-65
2024/04/03 12:09:37;;;;;;;;;;;12.50;99.90;;;;;;4914489;29;20315;-64
2024/04/03 12:12:05;;;;;;;;;;;12.40;99.90;;;;;;4927650;29;19934;-65
2024/04/03 12:14:31;;;;;;;;;;;12.40;99.90;;;;;;4917485;29;19974;-65
2024/04/03 12:16:59;;;;;;;;;;;12.50;99.90;;;;;;4924280;29;19938;-65
2024/04/03 12:19:30;;;;;;;;;;;12.40;99.90;;;;;;4915219;29;20151;-65
2024/04/03 12:21:56;;;;;;;;;;;12.40;99.90;;;;;;4908696;29;19966;-62
2024/04/03 12:24:22;;;;;;;;;;;12.40;99.90;;;;;;4914407;29;19935;-62
2024/04/03 12:26:48;;;;;;;;;;;12.50;99.90;;;;;;4926889;29;20296;-62
2024/04/03 12:29:16;;;;;;;;;;;12.50;99.90;;;;;;4899912;29;19927;-62
2024/04/03 12:31:45;;;;;;;;;;;12.60;99.90;;;;;;4916282;29;19953;-62
2024/04/03 12:34:11;;;;;;;;;;;12.70;99.90;;;;;;4928632;29;19930;-65
2024/04/03 12:36:37;;;;;;;;;;;12.80;99.90;;;;;;4900944;29;20022;-64
2024/04/03 12:39:04;;;;;;;;;;;12.90;99.90;;;;;;4919608;29;19931;-65
2024/04/03 12:41:30;;;;;;;;;;;12.90;99.90;;;;;;4912349;28;19931;-66
2024/04/03 12:43:56;;;;;;;;;;;12.90;99.90;;;;;;4928492;29;19950;-65
2024/04/03 12:46:22;;;;;;;;;;;12.70;99.90;;;;;;4908634;29;20355;-65
2024/04/03 12:48:48;;;;;;;;;;;12.60;99.90;;;;;;4925127;29;19938;-65
2024/04/03 12:51:13;;;;;;;;;;;12.40;99.90;;;;;;4928408;29;19970;-64
2024/04/03 12:53:39;;;;;;;;;;;12.20;99.90;;;;;;4917640;29;19931;-65
2024/04/03 12:56:05;;;;;;;;;;;11.90;99.90;;;;;;4930947;29;19938;-64
2024/04/03 12:58:31;;;;;;;;;;;11.80;99.90;;;;;;4898399;29;19947;-65
2024/04/03 13:00:59;;;;;;;;;;;11.70;99.90;;;;;;4904360;29;20021;-65
2024/04/03 13:03:25;;;;;;;;;;;11.60;99.90;;;;;;4917407;29;19934;-64
2024/04/03 13:05:50;;;;;;;;;;;11.40;99.90;;;;;;4928051;29;19927;-65
2024/04/03 13:08:17;;;;;;;;;;;11.40;99.90;;;;;;4915476;29;19935;-65
2024/04/03 13:10:43;;;;;;;;;;;11.40;99.90;;;;;;4909982;29;20466;-65
2024/04/03 13:13:09;;;;;;;;;;;11.40;99.90;;;;;;4930868;29;19927;-64
2024/04/03 13:15:35;;;;;;;;;;;11.30;99.90;;;;;;4927009;29;20409;-65
2024/04/03 13:18:01;;;;;;;;;;;11.30;99.90;;;;;;4915194;29;19933;-65
2024/04/03 13:20:27;;;;;;;;;;;11.20;99.90;;;;;;4937955;29;19941;-65
2024/04/03 13:22:57;;;;;;;;;;;11.20;99.90;;;;;;4901722;29;19927;-65
2024/04/03 13:25:30;;;;;;;;;;;11.20;99.90;;;;;;4914374;29;19930;-65
2024/04/03 13:27:56;;;;;;;;;;;11.20;99.90;;;;;;4930040;29;20404;-64
2024/04/03 13:30:22;;;;;;;;;;;11.20;99.90;;;;;;4913021;29;19931;-64
2024/04/03 13:32:49;;;;;;;;;;;11.10;99.90;;;;;;4914573;29;19934;-65
2024/04/03 13:35:15;;;;;;;;;;;11.00;99.90;;;;;;4926200;29;19926;-64
2024/04/03 13:37:41;;;;;;;;;;;10.80;99.90;;;;;;4910591;29;20351;-67
2024/04/03 13:40:11;;;;;;;;;;;10.70;99.90;;;;;;4922659;29;20320;-65
2024/04/03 13:42:37;;;;;;;;;;;10.60;99.90;;;;;;4915735;29;20038;-65
2024/04/03 13:45:04;;;;;;;;;;;10.50;99.90;;;;;;4930078;29;19927;-64
2024/04/03 13:47:30;;;;;;;;;;;10.50;99.90;;;;;;4918519;29;19942;-65
2024/04/03 13:49:55;;;;;;;;;;;10.40;99.90;;;;;;4905447;29;19934;-65
2024/04/03 13:52:21;;;;;;;;;;;10.30;99.90;;;;;;4900880;29;19931;-64
2024/04/03 13:54:48;;;;;;;;;;;10.20;99.90;;;;;;4914756;29;20358;-65
2024/04/03 13:57:13;;;;;;;;;;;10.20;99.90;;;;;;4915337;29;19949;-65
2024/04/03 13:59:43;;;;;;;;;;;10.20;99.90;;;;;;4912054;29;19935;-65
2024/04/03 14:02:12;;;;;;;;;;;10.20;99.90;;;;;;4897419;29;19931;-65
2024/04/03 14:04:39;;;;;;;;;;;10.30;99.90;;;;;;4913827;29;20021;-65
2024/04/03 14:07:05;;;;;;;;;;;10.30;99.90;;;;;;4913742;29;19934;-65
2024/04/03 14:09:31;;;;;;;;;;;10.30;99.90;;;;;;4913979;29;19931;-65
2024/04/03 14:11:57;;;;;;;;;;;10.30;99.90;;;;;;4918297;29;19927;-65
2024/04/03 14:14:23;;;;;;;;;;;10.30;99.90;;;;;;4925825;29;19934;-65
2024/04/03 14:16:50;;;;;;;;;;;10.40;99.90;;;;;;4916988;29;19927;-65
2024/04/03 14:19:16;;;;;;;;;;;10.40;99.90;;;;;;4886319;29;19950;-65
2024/04/03 14:21:42;;;;;;;;;;;10.40;99.90;;;;;;4913683;29;20013;-64
2024/04/03 14:24:08;;;;;;;;;;;10.50;99.90;;;;;;4898837;29;20678;-65
2024/04/03 14:26:34;;;;;;;;;;;10.50;99.90;;;;;;4896449;29;19930;-64
2024/04/03 14:29:00;;;;;;;;;;;10.60;99.90;;;;;;4911075;29;20363;-65